Time;durP1;ratioP1;P1;durP2;ratioP2;P2;SDS_P1;SDS_P2;PMS_P1;PMS_P2;Temp;Humidity;BMP_temperature;BMP_pressure;BME280_temperature;BME280_humidity;BME280_pressure;Samples;Min_cycle;Max_cycle;Signal;HPM_P1;HPM_P2
2023/03/17 17:01:13;;;;;;;8.20;3.38;;;14.50;99.90;;;;;;5110430;27;20341;-61
2023/03/17 17:03:39;;;;;;;5.95;3.40;;;14.30;99.90;;;;;;5109799;28;20089;-61
2023/03/17 17:06:05;;;;;;;6.63;3.78;;;14.30;99.90;;;;;;5110569;28;20023;-62
2023/03/17 17:08:32;;;;;;;5.95;3.67;;;14.30;99.90;;;;;;5110375;28;20028;-59
2023/03/17 17:10:57;;;;;;;7.43;3.60;;;14.30;99.90;;;;;;5109751;28;20032;-61
2023/03/17 17:13:23;;;;;;;7.25;3.45;;;14.40;99.90;;;;;;5108624;28;20053;-61
2023/03/17 17:15:49;;;;;;;5.05;3.35;;;14.40;99.90;;;;;;5117112;28;20087;-61
2023/03/17 17:18:23;;;;;;;6.47;3.42;;;14.50;99.90;;;;;;5119884;28;20023;-62
2023/03/17 17:20:50;;;;;;;6.15;3.58;;;14.50;99.90;;;;;;5130438;27;20371;-63
2023/03/17 17:23:19;;;;;;;9.57;4.25;;;14.50;99.90;;;;;;5130578;27;20016;-59
2023/03/17 17:25:45;;;;;;;6.10;3.70;;;14.50;99.90;;;;;;5129541;28;20461;-62
2023/03/17 17:28:12;;;;;;;7.28;4.00;;;14.40;99.90;;;;;;5130552;28;20141;-60
2023/03/17 17:30:41;;;;;;;6.80;4.40;;;14.40;99.90;;;;;;5130363;28;20111;-62
2023/03/17 17:33:07;;;;;;;6.93;3.70;;;14.40;99.90;;;;;;5129398;27;20026;-59
2023/03/17 17:35:33;;;;;;;7.18;4.28;;;14.40;99.90;;;;;;5130360;27;20016;-59
2023/03/17 17:38:00;;;;;;;7.97;4.18;;;14.40;99.90;;;;;;5130260;27;20028;-59
2023/03/17 17:40:26;;;;;;;8.18;4.03;;;14.30;99.90;;;;;;5129494;28;20039;-60
2023/03/17 17:42:53;;;;;;;7.45;4.18;;;14.30;99.90;;;;;;5130053;28;20456;-61
2023/03/17 17:45:19;;;;;;;6.93;4.10;;;14.30;99.90;;;;;;5129525;28;20523;-61
2023/03/17 17:47:45;;;;;;;8.27;4.22;;;14.20;99.90;;;;;;5128935;28;20011;-60
2023/03/17 17:50:20;;;;;;;7.68;3.80;;;14.10;99.90;;;;;;5130218;27;20073;-60
2023/03/17 17:52:46;;;;;;;17.08;10.93;;;14.10;99.90;;;;;;5129115;28;20058;-60
2023/03/17 17:55:11;;;;;;;18.98;11.60;;;14.10;99.90;;;;;;5129804;28;20043;-60
2023/03/17 17:57:37;;;;;;;18.58;11.05;;;14.00;99.90;;;;;;5130032;28;20019;-60
2023/03/17 18:00:05;;;;;;;11.57;7.65;;;14.00;99.90;;;;;;5128862;28;20085;-59
2023/03/17 18:02:31;;;;;;;15.13;8.48;;;14.00;99.90;;;;;;5129792;28;20468;-59
2023/03/17 18:04:59;;;;;;;10.23;6.70;;;14.00;99.90;;;;;;5128359;27;20030;-59
2023/03/17 18:07:25;;;;;;;10.35;6.00;;;14.00;99.90;;;;;;5129111;28;20016;-59
2023/03/17 18:09:50;;;;;;;12.48;6.35;;;13.90;99.90;;;;;;5129583;27;20095;-60
2023/03/17 18:12:16;;;;;;;11.05;6.22;;;13.90;99.90;;;;;;5116940;28;20026;-60
2023/03/17 18:14:42;;;;;;;9.55;5.78;;;13.80;99.90;;;;;;5115215;28;20026;-62
2023/03/17 18:17:07;;;;;;;12.00;5.95;;;13.80;99.90;;;;;;5115928;28;20030;-62
2023/03/17 18:19:33;;;;;;;10.32;5.18;;;13.80;99.90;;;;;;5115957;28;20422;-60
2023/03/17 18:21:59;;;;;;;9.63;5.00;;;13.70;99.90;;;;;;5115057;28;20019;-60
2023/03/17 18:24:25;;;;;;;8.32;4.35;;;13.70;99.90;;;;;;5115620;28;20047;-63
2023/03/17 18:26:51;;;;;;;6.63;4.25;;;13.70;99.90;;;;;;5115699;28;20016;-61
2023/03/17 18:29:17;;;;;;;9.73;4.43;;;13.70;99.90;;;;;;5115043;28;20498;-61
2023/03/17 18:31:48;;;;;;;7.18;4.13;;;13.70;99.90;;;;;;5115691;28;20055;-62
2023/03/17 18:34:39;;;;;;;8.10;4.20;;;13.60;99.90;;;;;;5115603;28;20039;-61
2023/03/17 18:37:06;;;;;;;8.95;4.75;;;13.60;99.90;;;;;;5115450;28;20491;-60
2023/03/17 18:39:32;;;;;;;7.82;4.30;;;13.60;99.90;;;;;;5115345;28;20073;-62
2023/03/17 18:41:58;;;;;;;9.07;5.43;;;13.60;99.90;;;;;;5114742;28;20058;-62
2023/03/17 18:44:24;;;;;;;9.23;4.55;;;13.60;99.90;;;;;;5114124;28;20035;-62
2023/03/17 18:46:50;;;;;;;8.10;5.15;;;13.50;99.90;;;;;;5115305;28;20020;-62
2023/03/17 18:49:15;;;;;;;8.98;5.13;;;13.50;99.90;;;;;;5114405;28;20042;-62
2023/03/17 18:51:41;;;;;;;9.25;5.32;;;13.40;99.90;;;;;;5115249;28;20056;-62
2023/03/17 18:54:07;;;;;;;10.23;5.57;;;13.40;99.90;;;;;;5115056;28;20507;-59
2023/03/17 18:56:33;;;;;;;9.88;6.20;;;13.40;99.90;;;;;;5114474;28;20023;-60
2023/03/17 18:58:59;;;;;;;9.82;5.88;;;13.30;99.90;;;;;;5114374;28;20019;-60
2023/03/17 19:01:26;;;;;;;10.55;6.55;;;13.30;99.90;;;;;;5114699;28;20023;-59
2023/03/17 19:03:52;;;;;;;10.13;6.55;;;13.20;99.90;;;;;;5114023;28;20019;-59
2023/03/17 19:06:19;;;;;;;10.70;6.22;;;13.20;99.90;;;;;;5114730;28;20023;-59
2023/03/17 19:08:46;;;;;;;8.73;5.80;;;13.20;99.90;;;;;;5114583;28;20105;-60
2023/03/17 19:11:14;;;;;;;8.23;5.47;;;13.20;99.90;;;;;;5112491;28;20080;-60
2023/03/17 19:13:41;;;;;;;8.82;5.43;;;13.20;99.90;;;;;;5114311;28;20091;-61
2023/03/17 19:16:07;;;;;;;7.93;4.80;;;13.20;99.90;;;;;;5113108;28;20043;-59
2023/03/17 19:18:34;;;;;;;9.65;5.63;;;13.20;99.90;;;;;;5113639;28;20478;-59
2023/03/17 19:21:01;;;;;;;8.18;5.22;;;13.20;99.90;;;;;;5114294;28;20038;-59
2023/03/17 19:23:27;;;;;;;10.68;6.40;;;13.20;99.90;;;;;;5113216;28;20547;-59
2023/03/17 19:25:53;;;;;;;14.75;9.07;;;13.20;99.90;;;;;;5113637;28;20035;-59
2023/03/17 19:28:19;;;;;;;14.07;8.50;;;13.20;99.90;;;;;;5114147;28;20410;-58
2023/03/17 19:30:46;;;;;;;18.67;10.95;;;13.10;99.90;;;;;;5113504;28;20477;-59
2023/03/17 19:33:13;;;;;;;22.85;13.95;;;13.10;99.90;;;;;;5113732;28;20045;-59
2023/03/17 19:35:40;;;;;;;25.00;15.38;;;13.00;99.90;;;;;;5113948;28;20544;-59
2023/03/17 19:38:07;;;;;;;34.95;21.25;;;13.00;99.90;;;;;;5113302;28;20073;-59
2023/03/17 19:40:36;;;;;;;35.08;21.75;;;13.00;99.90;;;;;;5113849;28;20032;-59
2023/03/17 19:43:02;;;;;;;29.92;20.00;;;12.90;99.90;;;;;;5113891;28;20026;-59
2023/03/17 19:45:29;;;;;;;23.90;14.52;;;12.80;99.90;;;;;;5113292;28;20113;-59
2023/03/17 19:47:54;;;;;;;21.60;13.00;;;12.80;99.90;;;;;;5113926;28;20054;-60
2023/03/17 19:50:20;;;;;;;25.65;15.68;;;12.80;99.90;;;;;;5113726;28;20047;-59
2023/03/17 19:52:47;;;;;;;30.90;19.80;;;12.80;99.90;;;;;;5113232;28;20062;-60
2023/03/17 19:55:16;;;;;;;29.52;18.83;;;12.80;99.90;;;;;;5113855;28;20020;-59
2023/03/17 19:57:42;;;;;;;40.08;23.88;;;12.70;99.90;;;;;;5113648;28;20122;-60
2023/03/17 20:00:08;;;;;;;29.05;18.35;;;12.70;99.90;;;;;;5112660;28;20146;-60
2023/03/17 20:02:35;;;;;;;31.58;20.83;;;12.70;99.90;;;;;;5113466;28;20357;-59
2023/03/17 20:05:00;;;;;;;27.40;16.83;;;12.70;99.90;;;;;;5113666;28;20482;-59
2023/03/17 20:07:26;;;;;;;29.38;17.23;;;12.70;99.90;;;;;;5112926;28;20541;-59
2023/03/17 20:09:52;;;;;;;24.45;14.18;;;12.70;99.90;;;;;;5113359;28;20026;-60
2023/03/17 20:12:19;;;;;;;22.02;14.55;;;12.70;99.90;;;;;;5113474;28;20091;-60
2023/03/17 20:14:45;;;;;;;28.73;18.88;;;12.70;99.90;;;;;;5112788;28;20077;-60
2023/03/17 20:17:12;;;;;;;30.17;19.50;;;12.80;99.90;;;;;;5096033;28;20020;-60
2023/03/17 20:19:38;;;;;;;30.80;18.90;;;12.80;99.90;;;;;;5092397;28;20085;-59
2023/03/17 20:22:05;;;;;;;23.27;16.10;;;12.90;99.90;;;;;;5092491;28;20024;-60
2023/03/17 20:24:33;;;;;;;21.13;13.05;;;12.90;99.90;;;;;;5091459;28;20034;-60
2023/03/17 20:27:02;;;;;;;16.48;9.23;;;12.90;99.90;;;;;;5092289;28;20060;-59
2023/03/17 20:29:28;;;;;;;16.77;10.35;;;12.90;99.90;;;;;;5092701;28;20557;-59
2023/03/17 20:31:54;;;;;;;21.95;13.52;;;12.90;99.90;;;;;;5092792;28;20016;-59
2023/03/17 20:34:20;;;;;;;22.92;15.90;;;13.00;99.90;;;;;;5091760;28;20028;-60
2023/03/17 20:36:47;;;;;;;18.20;13.00;;;13.00;99.90;;;;;;5092908;28;20031;-60
2023/03/17 20:39:18;;;;;;;17.60;11.82;;;13.00;99.90;;;;;;5092580;28;20020;-60
2023/03/17 20:41:46;;;;;;;13.93;9.55;;;13.00;99.90;;;;;;5092010;28;20028;-59
2023/03/17 20:44:11;;;;;;;13.40;7.68;;;13.00;99.90;;;;;;5081224;28;20496;-59
2023/03/17 20:46:37;;;;;;;9.10;5.60;;;13.00;99.90;;;;;;5085308;28;20032;-60
2023/03/17 20:49:04;;;;;;;8.13;4.68;;;13.00;99.90;;;;;;5082496;28;20377;-59
2023/03/17 20:51:31;;;;;;;8.05;3.88;;;13.00;99.90;;;;;;5089628;28;20020;-60
2023/03/17 20:53:57;;;;;;;7.82;3.53;;;13.10;99.90;;;;;;5088990;28;20024;-60
